sensor_id;sensor_type;location;lat;lon;timestamp;pressure;altitude;pressure_sealevel;temperature;humidity
45327;BME280;31062;49.678;24.560;2023-02-11T00:00:49;99620.84;;;-0.06;62.30
45327;BME280;31062;49.678;24.560;2023-02-11T00:03:36;99702.91;;;0.55;61.84
45327;BME280;31062;49.678;24.560;2023-02-11T00:06:24;99764.06;;;0.92;62.10
45327;BME280;31062;49.678;24.560;2023-02-11T00:09:10;99653.66;;;0.14;62.99
45327;BME280;31062;49.678;24.560;2023-02-11T00:11:55;99754.47;;;0.82;62.90
45327;BME280;31062;49.678;24.560;2023-02-11T00:14:41;99776.78;;;0.95;63.12
45327;BME280;31062;49.678;24.560;2023-02-11T00:17:26;99571.50;;;-0.37;62.77
45327;BME280;31062;49.678;24.560;2023-02-11T00:20:11;99561.53;;;-0.41;63.09
45327;BME280;31062;49.678;24.560;2023-02-11T00:22:57;99771.41;;;0.86;63.07
45327;BME280;31062;49.678;24.560;2023-02-11T00:25:44;99589.72;;;-0.29;63.40
45327;BME280;31062;49.678;24.560;2023-02-11T00:28:29;99758.59;;;0.92;63.25
45327;BME280;31062;49.678;24.560;2023-02-11T00:31:17;99616.88;;;-0.05;63.77
45327;BME280;31062;49.678;24.560;2023-02-11T00:34:03;99612.69;;;-0.06;63.98
45327;BME280;31062;49.678;24.560;2023-02-11T00:36:49;99769.53;;;0.92;63.59
45327;BME280;31062;49.678;24.560;2023-02-11T00:39:36;99595.47;;;-0.12;64.18
45327;BME280;31062;49.678;24.560;2023-02-11T00:42:22;99758.88;;;0.94;64.05
45327;BME280;31062;49.678;24.560;2023-02-11T00:45:08;99596.31;;;-0.06;64.27
45327;BME280;31062;49.678;24.560;2023-02-11T00:47:54;99751.25;;;0.98;64.45
45327;BME280;31062;49.678;24.560;2023-02-11T00:50:39;99721.34;;;0.89;63.99
45327;BME280;31062;49.678;24.560;2023-02-11T00:53:25;99698.84;;;0.79;64.18
45327;BME280;31062;49.678;24.560;2023-02-11T00:56:11;99721.16;;;0.78;64.38
45327;BME280;31062;49.678;24.560;2023-02-11T00:58:56;99525.84;;;-0.43;64.58
45327;BME280;31062;49.678;24.560;2023-02-11T01:01:42;99713.16;;;0.89;64.76
45327;BME280;31062;49.678;24.560;2023-02-11T01:04:28;99719.66;;;0.77;65.49
45327;BME280;31062;49.678;24.560;2023-02-11T01:07:14;99704.53;;;0.96;65.32
45327;BME280;31062;49.678;24.560;2023-02-11T01:09:59;99513.91;;;-0.30;65.45
45327;BME280;31062;49.678;24.560;2023-02-11T01:12:47;99696.41;;;1.02;65.33
45327;BME280;31062;49.678;24.560;2023-02-11T01:15:32;99683.50;;;0.82;65.58
45327;BME280;31062;49.678;24.560;2023-02-11T01:18:18;99678.00;;;0.97;65.26
45327;BME280;31062;49.678;24.560;2023-02-11T01:21:06;99526.91;;;-0.05;65.48
45327;BME280;31062;49.678;24.560;2023-02-11T01:23:51;99671.63;;;0.85;65.91
45327;BME280;31062;49.678;24.560;2023-02-11T01:26:38;99695.13;;;0.97;65.59
45327;BME280;31062;49.678;24.560;2023-02-11T01:29:23;99480.72;;;-0.29;65.77
45327;BME280;31062;49.678;24.560;2023-02-11T01:32:11;99451.03;;;-0.42;65.51
45327;BME280;31062;49.678;24.560;2023-02-11T01:34:58;99641.88;;;0.87;65.51
45327;BME280;31062;49.678;24.560;2023-02-11T01:37:44;99633.69;;;0.87;65.82
45327;BME280;31062;49.678;24.560;2023-02-11T01:40:30;99636.59;;;0.83;65.29
45327;BME280;31062;49.678;24.560;2023-02-11T01:43:15;99512.66;;;0.00;65.73
45327;BME280;31062;49.678;24.560;2023-02-11T01:49:12;99652.25;;;1.03;65.26
45327;BME280;31062;49.678;24.560;2023-02-11T01:52:04;99476.75;;;-0.13;65.32
45327;BME280;31062;49.678;24.560;2023-02-11T01:54:53;99620.44;;;0.80;65.58
45327;BME280;31062;49.678;24.560;2023-02-11T01:58:01;99607.94;;;0.73;64.79
45327;BME280;31062;49.678;24.560;2023-02-11T02:00:49;99631.97;;;0.90;64.86
45327;BME280;31062;49.678;24.560;2023-02-11T02:03:36;99645.03;;;1.00;64.94
45327;BME280;31062;49.678;24.560;2023-02-11T02:06:31;99539.09;;;0.29;65.61
45327;BME280;31062;49.678;24.560;2023-02-11T02:09:25;99635.25;;;0.94;65.22
45327;BME280;31062;49.678;24.560;2023-02-11T02:12:12;99444.94;;;-0.36;65.33
45327;BME280;31062;49.678;24.560;2023-02-11T02:15:34;99638.47;;;0.92;65.24
45327;BME280;31062;49.678;24.560;2023-02-11T02:34:01;99642.47;;;0.76;64.69
45327;BME280;31062;49.678;24.560;2023-02-11T02:37:04;99653.88;;;0.75;64.88
45327;BME280;31062;49.678;24.560;2023-02-11T02:39:52;99620.56;;;0.71;63.99
45327;BME280;31062;49.678;24.560;2023-02-11T02:42:39;99457.06;;;-0.37;64.13
45327;BME280;31062;49.678;24.560;2023-02-11T02:45:25;99618.38;;;0.75;64.44
45327;BME280;31062;49.678;24.560;2023-02-11T02:48:27;99622.88;;;0.78;64.03
45327;BME280;31062;49.678;24.560;2023-02-11T02:58:26;99617.06;;;0.70;64.45
45327;BME280;31062;49.678;24.560;2023-02-11T03:01:19;99624.50;;;0.70;64.01
45327;BME280;31062;49.678;24.560;2023-02-11T03:10:31;99638.84;;;0.85;63.16
45327;BME280;31062;49.678;24.560;2023-02-11T03:13:21;99609.28;;;0.83;63.34
45327;BME280;31062;49.678;24.560;2023-02-11T03:16:12;99608.28;;;0.81;63.19
45327;BME280;31062;49.678;24.560;2023-02-11T03:19:03;99617.16;;;0.76;63.42
45327;BME280;31062;49.678;24.560;2023-02-11T03:21:51;99596.56;;;0.60;63.58
45327;BME280;31062;49.678;24.560;2023-02-11T03:24:38;99609.72;;;0.76;63.59
45327;BME280;31062;49.678;24.560;2023-02-11T03:27:32;99626.84;;;0.77;63.38
45327;BME280;31062;49.678;24.560;2023-02-11T03:30:25;99594.50;;;0.70;63.04
45327;BME280;31062;49.678;24.560;2023-02-11T03:39:27;99620.81;;;0.73;63.12
45327;BME280;31062;49.678;24.560;2023-02-11T03:42:14;99585.56;;;0.55;62.32
45327;BME280;31062;49.678;24.560;2023-02-11T03:45:07;99572.75;;;0.40;62.71
45327;BME280;31062;49.678;24.560;2023-02-11T03:47:59;99604.28;;;0.62;63.20
45327;BME280;31062;49.678;24.560;2023-02-11T03:50:47;99594.34;;;0.59;62.68
45327;BME280;31062;49.678;24.560;2023-02-11T03:53:35;99411.03;;;-0.65;63.37
45327;BME280;31062;49.678;24.560;2023-02-11T03:56:26;99578.75;;;0.45;62.45
45327;BME280;31062;49.678;24.560;2023-02-11T03:59:13;99614.84;;;0.54;62.15
45327;BME280;31062;49.678;24.560;2023-02-11T04:01:59;99464.00;;;-0.36;62.39
45327;BME280;31062;49.678;24.560;2023-02-11T04:04:45;99614.50;;;0.47;61.69
45327;BME280;31062;49.678;24.560;2023-02-11T04:07:31;99575.19;;;0.38;62.33
45327;BME280;31062;49.678;24.560;2023-02-11T04:10:17;99426.09;;;-0.55;62.13
45327;BME280;31062;49.678;24.560;2023-02-11T04:13:02;99562.75;;;0.37;62.49
45327;BME280;31062;49.678;24.560;2023-02-11T04:15:48;99538.88;;;0.32;61.92
45327;BME280;31062;49.678;24.560;2023-02-11T04:18:33;99549.56;;;0.51;61.72
45327;BME280;31062;49.678;24.560;2023-02-11T04:21:19;99525.38;;;0.23;62.04
45327;BME280;31062;49.678;24.560;2023-02-11T04:24:04;99553.97;;;0.28;62.12
45327;BME280;31062;49.678;24.560;2023-02-11T04:26:50;99376.13;;;-0.66;62.27
45327;BME280;31062;49.678;24.560;2023-02-11T04:29:35;99330.53;;;-0.86;61.54
45327;BME280;31062;49.678;24.560;2023-02-11T04:32:20;99521.72;;;0.47;62.01
45327;BME280;31062;49.678;24.560;2023-02-11T04:35:06;99519.84;;;0.53;62.32
45327;BME280;31062;49.678;24.560;2023-02-11T04:37:52;99352.25;;;-0.57;61.94
45327;BME280;31062;49.678;24.560;2023-02-11T04:40:38;99481.88;;;0.34;61.45
45327;BME280;31062;49.678;24.560;2023-02-11T04:43:24;99506.44;;;0.55;61.83
45327;BME280;31062;49.678;24.560;2023-02-11T04:46:09;99502.50;;;0.56;61.95
45327;BME280;31062;49.678;24.560;2023-02-11T04:48:55;99497.88;;;0.42;61.84
45327;BME280;31062;49.678;24.560;2023-02-11T04:51:42;99488.97;;;0.67;62.15
45327;BME280;31062;49.678;24.560;2023-02-11T04:54:32;99302.28;;;-0.54;61.95
45327;BME280;31062;49.678;24.560;2023-02-11T04:57:17;99439.88;;;0.47;61.15
45327;BME280;31062;49.678;24.560;2023-02-11T05:00:04;99498.28;;;0.75;61.89
45327;BME280;31062;49.678;24.560;2023-02-11T05:02:50;99481.91;;;0.75;61.76
45327;BME280;31062;49.678;24.560;2023-02-11T05:05:39;99471.78;;;0.61;61.86
45327;BME280;31062;49.678;24.560;2023-02-11T05:08:25;99483.81;;;0.69;61.77
45327;BME280;31062;49.678;24.560;2023-02-11T05:11:19;99463.13;;;0.62;61.81
45327;BME280;31062;49.678;24.560;2023-02-11T05:14:05;99295.19;;;-0.66;61.79
45327;BME280;31062;49.678;24.560;2023-02-11T05:16:51;99426.09;;;0.15;62.45
45327;BME280;31062;49.678;24.560;2023-02-11T05:19:37;99399.47;;;-0.10;62.97
45327;BME280;31062;49.678;24.560;2023-02-11T05:22:22;99457.69;;;0.07;62.43
45327;BME280;31062;49.678;24.560;2023-02-11T05:25:08;99258.09;;;-1.13;63.10
45327;BME280;31062;49.678;24.560;2023-02-11T05:27:53;99231.19;;;-1.26;63.12
45327;BME280;31062;49.678;24.560;2023-02-11T05:30:39;99439.28;;;0.02;63.17
45327;BME280;31062;49.678;24.560;2023-02-11T05:33:24;99421.84;;;-0.06;63.18
45327;BME280;31062;49.678;24.560;2023-02-11T05:36:11;99263.72;;;-1.16;62.75
45327;BME280;31062;49.678;24.560;2023-02-11T05:38:57;99352.53;;;-0.55;63.29
45327;BME280;31062;49.678;24.560;2023-02-11T05:41:43;99437.59;;;0.05;63.09
45327;BME280;31062;49.678;24.560;2023-02-11T05:44:28;99437.09;;;0.06;63.05
45327;BME280;31062;49.678;24.560;2023-02-11T05:47:13;99431.94;;;0.08;63.04
45327;BME280;31062;49.678;24.560;2023-02-11T05:49:59;99437.59;;;0.05;61.95
45327;BME280;31062;49.678;24.560;2023-02-11T05:52:45;99447.84;;;0.10;62.74
45327;BME280;31062;49.678;24.560;2023-02-11T05:55:31;99435.88;;;0.07;61.88
45327;BME280;31062;49.678;24.560;2023-02-11T05:58:17;99443.81;;;0.05;62.29
45327;BME280;31062;49.678;24.560;2023-02-11T06:01:02;99247.53;;;-1.26;63.05
45327;BME280;31062;49.678;24.560;2023-02-11T06:03:47;99438.75;;;-0.02;62.34
45327;BME280;31062;49.678;24.560;2023-02-11T06:06:35;99289.91;;;-1.04;62.06
45327;BME280;31062;49.678;24.560;2023-02-11T06:09:20;99451.50;;;0.07;62.13
45327;BME280;31062;49.678;24.560;2023-02-11T06:12:06;99458.22;;;-0.09;62.95
45327;BME280;31062;49.678;24.560;2023-02-11T06:14:52;99236.34;;;-1.28;62.40
45327;BME280;31062;49.678;24.560;2023-02-11T06:17:37;99447.91;;;0.15;62.70
45327;BME280;31062;49.678;24.560;2023-02-11T06:20:22;99442.75;;;0.17;62.78
45327;BME280;31062;49.678;24.560;2023-02-11T06:23:08;99225.63;;;-1.16;62.19
45327;BME280;31062;49.678;24.560;2023-02-11T06:25:54;99278.66;;;-0.77;62.15
45327;BME280;31062;49.678;24.560;2023-02-11T06:28:39;99417.97;;;0.21;61.71
45327;BME280;31062;49.678;24.560;2023-02-11T06:31:26;99412.75;;;0.17;61.65
45327;BME280;31062;49.678;24.560;2023-02-11T06:34:12;99411.09;;;0.25;61.93
45327;BME280;31062;49.678;24.560;2023-02-11T06:36:58;99432.44;;;0.27;61.65
45327;BME280;31062;49.678;24.560;2023-02-11T06:39:44;99393.91;;;0.19;61.32
45327;BME280;31062;49.678;24.560;2023-02-11T06:42:29;99396.56;;;0.14;61.18
45327;BME280;31062;49.678;24.560;2023-02-11T06:45:15;99311.53;;;-0.46;61.16
45327;BME280;31062;49.678;24.560;2023-02-11T06:48:00;99173.03;;;-1.43;60.99
45327;BME280;31062;49.678;24.560;2023-02-11T06:50:46;99375.22;;;-0.08;61.78
45327;BME280;31062;49.678;24.560;2023-02-11T06:53:35;99339.22;;;-0.32;62.33
45327;BME280;31062;49.678;24.560;2023-02-11T06:56:22;99304.28;;;-0.34;61.33
45327;BME280;31062;49.678;24.560;2023-02-11T06:59:14;99334.31;;;-0.28;61.19
45327;BME280;31062;49.678;24.560;2023-02-11T07:02:01;99314.03;;;-0.27;60.97
45327;BME280;31062;49.678;24.560;2023-02-11T07:04:48;99121.03;;;-1.65;61.19
45327;BME280;31062;49.678;24.560;2023-02-11T07:07:34;99217.31;;;-0.93;60.95
45327;BME280;31062;49.678;24.560;2023-02-11T07:10:19;99295.09;;;-0.36;61.57
45327;BME280;31062;49.678;24.560;2023-02-11T07:13:05;99341.41;;;-0.16;61.44
45327;BME280;31062;49.678;24.560;2023-02-11T07:15:50;99352.59;;;-0.14;60.06
45327;BME280;31062;49.678;24.560;2023-02-11T07:18:37;99300.13;;;-0.29;59.68
45327;BME280;31062;49.678;24.560;2023-02-11T07:21:23;99165.22;;;-1.20;59.57
45327;BME280;31062;49.678;24.560;2023-02-11T07:24:09;99328.88;;;-0.08;59.36
45327;BME280;31062;49.678;24.560;2023-02-11T07:26:55;99157.91;;;-1.14;58.48
45327;BME280;31062;49.678;24.560;2023-02-11T07:29:41;99277.78;;;-0.33;58.39
45327;BME280;31062;49.678;24.560;2023-02-11T07:32:27;99313.22;;;-0.13;58.16
45327;BME280;31062;49.678;24.560;2023-02-11T07:35:14;99316.19;;;-0.11;59.04
45327;BME280;31062;49.678;24.560;2023-02-11T07:38:00;99317.00;;;-0.05;58.65
45327;BME280;31062;49.678;24.560;2023-02-11T07:40:45;99309.72;;;0.07;58.09
45327;BME280;31062;49.678;24.560;2023-02-11T07:43:32;99259.94;;;-0.14;58.88
45327;BME280;31062;49.678;24.560;2023-02-11T07:46:21;99304.03;;;0.30;57.87
45327;BME280;31062;49.678;24.560;2023-02-11T07:49:07;99301.28;;;0.51;57.38
45327;BME280;31062;49.678;24.560;2023-02-11T07:51:53;99154.34;;;-0.39;57.62
45327;BME280;31062;49.678;24.560;2023-02-11T07:54:39;99304.63;;;0.66;55.63
45327;BME280;31062;49.678;24.560;2023-02-11T07:57:24;99318.97;;;0.61;56.04
45327;BME280;31062;49.678;24.560;2023-02-11T08:00:10;99275.31;;;0.61;56.02
45327;BME280;31062;49.678;24.560;2023-02-11T08:02:56;99291.78;;;0.72;56.99
45327;BME280;31062;49.678;24.560;2023-02-11T08:05:43;99254.22;;;0.61;56.65
45327;BME280;31062;49.678;24.560;2023-02-11T08:08:37;99126.38;;;-0.14;56.08
45327;BME280;31062;49.678;24.560;2023-02-11T08:11:27;99270.66;;;0.98;56.15
45327;BME280;31062;49.678;24.560;2023-02-11T08:14:13;99277.63;;;0.99;55.08
45327;BME280;31062;49.678;24.560;2023-02-11T08:16:59;99083.91;;;-0.26;55.79
45327;BME280;31062;49.678;24.560;2023-02-11T08:19:44;99249.25;;;0.91;55.63
45327;BME280;31062;49.678;24.560;2023-02-11T08:22:31;99282.72;;;1.17;55.47
45327;BME280;31062;49.678;24.560;2023-02-11T08:25:19;99251.47;;;0.87;55.34
45327;BME280;31062;49.678;24.560;2023-02-11T08:28:04;99272.13;;;0.94;55.42
45327;BME280;31062;49.678;24.560;2023-02-11T08:30:50;99290.56;;;1.04;55.90
45327;BME280;31062;49.678;24.560;2023-02-11T08:33:36;99061.63;;;-0.51;56.17
45327;BME280;31062;49.678;24.560;2023-02-11T08:36:28;99284.50;;;0.89;56.54
45327;BME280;31062;49.678;24.560;2023-02-11T08:39:18;99121.03;;;-0.03;55.22
45327;BME280;31062;49.678;24.560;2023-02-11T08:42:05;99086.69;;;-0.21;55.74
45327;BME280;31062;49.678;24.560;2023-02-11T08:44:50;99266.47;;;1.03;56.09
45327;BME280;31062;49.678;24.560;2023-02-11T08:47:37;99274.50;;;1.12;56.50
45327;BME280;31062;49.678;24.560;2023-02-11T08:50:26;99089.28;;;-0.06;56.70
45327;BME280;31062;49.678;24.560;2023-02-11T08:53:12;99071.44;;;-0.07;56.66
45327;BME280;31062;49.678;24.560;2023-02-11T08:55:58;99244.66;;;1.08;55.32
45327;BME280;31062;49.678;24.560;2023-02-11T08:58:46;99106.25;;;0.09;55.49
45327;BME280;31062;49.678;24.560;2023-02-11T09:01:35;99251.81;;;1.00;55.76
45327;BME280;31062;49.678;24.560;2023-02-11T09:04:25;99225.63;;;0.82;55.69
45327;BME280;31062;49.678;24.560;2023-02-11T09:07:24;99271.19;;;1.02;55.84
45327;BME280;31062;49.678;24.560;2023-02-11T09:10:17;99055.53;;;-0.40;56.04
45327;BME280;31062;49.678;24.560;2023-02-11T09:13:03;99279.56;;;0.93;56.34
45327;BME280;31062;49.678;24.560;2023-02-11T09:15:49;99295.50;;;1.00;55.90
45327;BME280;31062;49.678;24.560;2023-02-11T09:18:35;99245.81;;;0.96;56.37
45327;BME280;31062;49.678;24.560;2023-02-11T09:21:23;98828.81;;;-1.95;56.36
45327;BME280;31062;49.678;24.560;2023-02-11T09:24:10;99200.59;;;0.90;56.45
45327;BME280;31062;49.678;24.560;2023-02-11T09:26:56;99255.13;;;1.15;55.95
45327;BME280;31062;49.678;24.560;2023-02-11T09:29:47;99235.16;;;1.41;55.65
45327;BME280;31062;49.678;24.560;2023-02-11T09:32:38;99235.72;;;1.56;55.58
45327;BME280;31062;49.678;24.560;2023-02-11T09:35:24;99139.16;;;1.11;55.53
45327;BME280;31062;49.678;24.560;2023-02-11T09:38:10;99241.34;;;1.89;54.93
45327;BME280;31062;49.678;24.560;2023-02-11T09:40:55;99216.94;;;1.80;54.30
45327;BME280;31062;49.678;24.560;2023-02-11T09:43:45;99226.44;;;1.90;54.01
45327;BME280;31062;49.678;24.560;2023-02-11T09:46:39;99058.69;;;0.95;54.04
45327;BME280;31062;49.678;24.560;2023-02-11T09:49:48;99042.53;;;0.97;54.52
45327;BME280;31062;49.678;24.560;2023-02-11T09:55:44;99177.72;;;2.05;53.12
45327;BME280;31062;49.678;24.560;2023-02-11T09:58:36;99188.44;;;2.15;52.93
45327;BME280;31062;49.678;24.560;2023-02-11T10:01:40;99160.81;;;2.01;53.89
45327;BME280;31062;49.678;24.560;2023-02-11T10:22:35;99100.59;;;2.79;51.97
45327;BME280;31062;49.678;24.560;2023-02-11T10:25:26;99105.50;;;3.03;51.58
45327;BME280;31062;49.678;24.560;2023-02-11T10:28:19;99094.25;;;3.07;51.27
45327;BME280;31062;49.678;24.560;2023-02-11T10:34:08;99089.50;;;3.13;51.37
45327;BME280;31062;49.678;24.560;2023-02-11T10:36:54;99068.63;;;2.99;51.47
45327;BME280;31062;49.678;24.560;2023-02-11T10:39:40;99072.06;;;3.10;51.38
45327;BME280;31062;49.678;24.560;2023-02-11T10:42:26;99067.13;;;3.09;51.10
45327;BME280;31062;49.678;24.560;2023-02-11T10:45:27;99108.16;;;3.20;50.95
45327;BME280;31062;49.678;24.560;2023-02-11T10:48:55;99069.50;;;3.29;50.74
45327;BME280;31062;49.678;24.560;2023-02-11T10:51:39;99068.97;;;3.36;50.28
45327;BME280;31062;49.678;24.560;2023-02-11T10:54:25;99042.84;;;3.29;50.47
45327;BME280;31062;49.678;24.560;2023-02-11T10:57:17;99025.66;;;3.29;50.76
45327;BME280;31062;49.678;24.560;2023-02-11T11:00:19;98911.75;;;2.57;51.00
45327;BME280;31062;49.678;24.560;2023-02-11T11:03:18;99047.25;;;3.44;50.24
45327;BME280;31062;49.678;24.560;2023-02-11T11:06:07;99012.59;;;3.46;51.05
45327;BME280;31062;49.678;24.560;2023-02-11T11:08:54;98987.78;;;3.33;49.97
45327;BME280;31062;49.678;24.560;2023-02-11T11:11:51;99015.56;;;3.48;50.58
45327;BME280;31062;49.678;24.560;2023-02-11T11:14:38;99007.34;;;3.48;50.79
45327;BME280;31062;49.678;24.560;2023-02-11T11:17:23;98791.31;;;2.11;50.27
45327;BME280;31062;49.678;24.560;2023-02-11T11:23:18;98951.91;;;3.31;50.14
45327;BME280;31062;49.678;24.560;2023-02-11T11:26:11;98987.81;;;3.63;50.50
45327;BME280;31062;49.678;24.560;2023-02-11T11:29:01;98952.75;;;3.50;49.42
45327;BME280;31062;49.678;24.560;2023-02-11T11:32:04;98981.94;;;3.78;49.82
45327;BME280;31062;49.678;24.560;2023-02-11T11:35:24;98972.03;;;3.75;49.28
45327;BME280;31062;49.678;24.560;2023-02-11T11:38:12;98932.22;;;3.62;49.56
45327;BME280;31062;49.678;24.560;2023-02-11T11:41:16;98772.84;;;2.63;49.89
45327;BME280;31062;49.678;24.560;2023-02-11T11:44:24;98790.19;;;2.77;48.97
45327;BME280;31062;49.678;24.560;2023-02-11T11:50:19;98907.03;;;3.64;49.10
45327;BME280;31062;49.678;24.560;2023-02-11T11:56:50;98816.03;;;3.11;49.12
45327;BME280;31062;49.678;24.560;2023-02-11T11:59:38;98728.34;;;2.57;49.00
45327;BME280;31062;49.678;24.560;2023-02-11T12:06:07;98961.66;;;4.16;48.89
45327;BME280;31062;49.678;24.560;2023-02-11T12:12:24;98742.47;;;2.97;48.34
45327;BME280;31062;49.678;24.560;2023-02-11T12:21:47;98915.56;;;4.09;48.49
45327;BME280;31062;49.678;24.560;2023-02-11T12:31:31;98888.38;;;3.87;48.90
45327;BME280;31062;49.678;24.560;2023-02-11T12:43:42;98896.25;;;3.72;48.92
45327;BME280;31062;49.678;24.560;2023-02-11T12:46:44;98734.56;;;2.87;48.68
45327;BME280;31062;49.678;24.560;2023-02-11T12:50:16;98897.50;;;3.95;49.02
45327;BME280;31062;49.678;24.560;2023-02-11T12:56:17;98896.13;;;3.83;48.66
45327;BME280;31062;49.678;24.560;2023-02-11T12:59:12;98822.44;;;3.49;48.69
45327;BME280;31062;49.678;24.560;2023-02-11T13:02:08;98888.47;;;4.00;49.00
45327;BME280;31062;49.678;24.560;2023-02-11T13:05:05;98880.78;;;3.98;48.74
45327;BME280;31062;49.678;24.560;2023-02-11T13:11:06;98857.41;;;3.92;48.91
45327;BME280;31062;49.678;24.560;2023-02-11T13:14:21;98868.31;;;3.73;49.43
45327;BME280;31062;49.678;24.560;2023-02-11T13:17:16;98872.69;;;3.82;49.40
45327;BME280;31062;49.678;24.560;2023-02-11T13:20:20;98869.19;;;3.87;49.54
45327;BME280;31062;49.678;24.560;2023-02-11T13:32:05;98784.97;;;3.57;49.37
45327;BME280;31062;49.678;24.560;2023-02-11T13:37:38;98849.44;;;3.88;49.76
45327;BME280;31062;49.678;24.560;2023-02-11T13:40:34;98825.28;;;3.87;50.30
45327;BME280;31062;49.678;24.560;2023-02-11T13:43:23;98809.53;;;3.68;50.43
45327;BME280;31062;49.678;24.560;2023-02-11T13:46:11;98816.38;;;3.81;50.59
45327;BME280;31062;49.678;24.560;2023-02-11T13:48:57;98836.84;;;3.80;50.59
45327;BME280;31062;49.678;24.560;2023-02-11T13:51:44;98809.63;;;3.82;50.21
45327;BME280;31062;49.678;24.560;2023-02-11T13:54:36;98824.78;;;3.64;50.40
45327;BME280;31062;49.678;24.560;2023-02-11T13:57:35;98638.09;;;2.52;50.12
45327;BME280;31062;49.678;24.560;2023-02-11T14:03:23;98723.88;;;3.14;50.08
45327;BME280;31062;49.678;24.560;2023-02-11T14:06:36;98815.69;;;3.75;50.00
45327;BME280;31062;49.678;24.560;2023-02-11T14:09:52;98779.84;;;3.48;50.53
45327;BME280;31062;49.678;24.560;2023-02-11T14:13:04;98808.31;;;3.64;50.60
45327;BME280;31062;49.678;24.560;2023-02-11T14:19:37;98767.59;;;3.25;50.37
45327;BME280;31062;49.678;24.560;2023-02-11T14:22:28;98610.97;;;2.24;51.16
45327;BME280;31062;49.678;24.560;2023-02-11T14:25:23;98825.44;;;3.46;50.76
45327;BME280;31062;49.678;24.560;2023-02-11T14:28:21;98806.22;;;3.51;50.80
45327;BME280;31062;49.678;24.560;2023-02-11T14:31:13;98782.44;;;3.35;50.71
45327;BME280;31062;49.678;24.560;2023-02-11T14:40:15;98819.88;;;3.33;51.25
45327;BME280;31062;49.678;24.560;2023-02-11T14:43:15;98796.50;;;3.26;51.00
45327;BME280;31062;49.678;24.560;2023-02-11T14:46:03;98785.13;;;3.41;51.39
45327;BME280;31062;49.678;24.560;2023-02-11T14:48:53;98811.78;;;3.40;51.35
45327;BME280;31062;49.678;24.560;2023-02-11T14:51:39;98803.38;;;3.38;51.35
45327;BME280;31062;49.678;24.560;2023-02-11T14:54:26;98790.66;;;3.35;51.39
45327;BME280;31062;49.678;24.560;2023-02-11T14:57:18;98795.13;;;3.14;51.09
45327;BME280;31062;49.678;24.560;2023-02-11T15:00:16;98792.97;;;3.31;51.21
45327;BME280;31062;49.678;24.560;2023-02-11T15:03:02;98777.53;;;3.28;51.48
45327;BME280;31062;49.678;24.560;2023-02-11T15:05:54;98807.72;;;3.22;51.38
45327;BME280;31062;49.678;24.560;2023-02-11T15:08:50;98629.13;;;2.21;51.81
45327;BME280;31062;49.678;24.560;2023-02-11T15:11:38;98778.81;;;3.27;51.69
45327;BME280;31062;49.678;24.560;2023-02-11T15:14:28;98771.59;;;3.24;51.51
45327;BME280;31062;49.678;24.560;2023-02-11T15:17:18;98757.22;;;3.18;52.06
45327;BME280;31062;49.678;24.560;2023-02-11T15:20:06;98789.84;;;3.16;51.85
45327;BME280;31062;49.678;24.560;2023-02-11T15:22:58;98732.81;;;2.90;51.68
45327;BME280;31062;49.678;24.560;2023-02-11T15:25:44;98783.59;;;3.21;51.89
45327;BME280;31062;49.678;24.560;2023-02-11T15:28:35;98590.81;;;1.91;52.20
45327;BME280;31062;49.678;24.560;2023-02-11T15:31:23;98760.31;;;3.09;52.41
45327;BME280;31062;49.678;24.560;2023-02-11T15:34:10;98580.94;;;1.83;52.28
45327;BME280;31062;49.678;24.560;2023-02-11T15:36:56;98581.69;;;1.83;52.18
45327;BME280;31062;49.678;24.560;2023-02-11T15:39:42;98785.66;;;3.15;52.62
45327;BME280;31062;49.678;24.560;2023-02-11T15:42:30;98815.53;;;3.13;52.89
45327;BME280;31062;49.678;24.560;2023-02-11T15:48:23;98791.09;;;2.91;53.32
45327;BME280;31062;49.678;24.560;2023-02-11T15:57:03;98782.06;;;2.96;54.02
45327;BME280;31062;49.678;24.560;2023-02-11T15:59:53;98791.94;;;2.74;55.09
45327;BME280;31062;49.678;24.560;2023-02-11T16:02:39;98777.38;;;2.91;55.37
45327;BME280;31062;49.678;24.560;2023-02-11T16:08:28;98780.91;;;2.85;55.97
45327;BME280;31062;49.678;24.560;2023-02-11T16:11:25;98798.44;;;2.71;55.72
45327;BME280;31062;49.678;24.560;2023-02-11T16:20:03;98783.88;;;2.87;56.59
45327;BME280;31062;49.678;24.560;2023-02-11T16:22:49;98750.00;;;2.61;57.35
45327;BME280;31062;49.678;24.560;2023-02-11T16:25:35;98658.63;;;1.98;58.02
45327;BME280;31062;49.678;24.560;2023-02-11T16:28:21;98784.19;;;2.78;57.91
45327;BME280;31062;49.678;24.560;2023-02-11T16:31:07;98749.25;;;2.60;58.55
45327;BME280;31062;49.678;24.560;2023-02-11T16:33:54;98777.16;;;2.53;58.91
45327;BME280;31062;49.678;24.560;2023-02-11T16:36:39;98771.88;;;2.61;59.33
45327;BME280;31062;49.678;24.560;2023-02-11T16:39:29;98741.41;;;2.40;59.34
45327;BME280;31062;49.678;24.560;2023-02-11T16:42:19;98775.59;;;2.63;59.33
45327;BME280;31062;49.678;24.560;2023-02-11T16:45:05;98624.56;;;1.64;59.87
45327;BME280;31062;49.678;24.560;2023-02-11T16:47:51;98767.41;;;2.58;60.32
45327;BME280;31062;49.678;24.560;2023-02-11T16:50:36;98757.41;;;2.66;60.51
45327;BME280;31062;49.678;24.560;2023-02-11T16:53:23;98568.09;;;1.37;60.95
45327;BME280;31062;49.678;24.560;2023-02-11T16:56:14;98785.75;;;2.68;61.03
45327;BME280;31062;49.678;24.560;2023-02-11T16:59:01;98774.34;;;2.64;61.69
45327;BME280;31062;49.678;24.560;2023-02-11T17:01:47;98726.69;;;2.49;62.03
45327;BME280;31062;49.678;24.560;2023-02-11T17:04:34;98699.91;;;2.36;62.79
45327;BME280;31062;49.678;24.560;2023-02-11T17:07:20;98704.22;;;2.26;63.78
45327;BME280;31062;49.678;24.560;2023-02-11T17:10:22;98740.56;;;2.56;63.76
45327;BME280;31062;49.678;24.560;2023-02-11T17:13:08;98744.84;;;2.46;64.18
45327;BME280;31062;49.678;24.560;2023-02-11T17:15:54;98760.81;;;2.42;64.23
45327;BME280;31062;49.678;24.560;2023-02-11T17:18:40;98738.88;;;2.47;64.86
45327;BME280;31062;49.678;24.560;2023-02-11T17:21:27;98747.44;;;2.33;65.35
45327;BME280;31062;49.678;24.560;2023-02-11T17:24:19;98543.59;;;1.14;65.00